Telford, United Kingdom
Current Conditions -  °F | °C
As of 7:50 AM on Friday 28 Nov 2014 (Local Time) from EGOS Reporting Station
Haze Haze  
Wind Chill: 10°   Ceiling: 1000
Heat Index: 10°   Visibility: 2.5mi
Dew Point:   Wind: 8mph
Humidity: 94%   Direction: 80°E
Pressure: 29.62"   Gusts: NA
Location:  52.68°N, 2.45°W
Report Text: EGOS 280750Z 08007KT 4000 HZ FEW008 BKN010 10/09 Q1003 GRN BECMG 5000 HZ GRN
Loading
Personal Weather Stations






























Interactive Weather Map New forecast layout! Learn more

10-Day Weather Forecast

Advertisements
Track Severe Weather on mobile